createdAt,value
2023-05-12T00:01:38.444Z,100624.53
2023-05-12T00:04:05.709Z,100620.03
2023-05-12T00:06:32.872Z,100625.25
2023-05-12T00:08:59.914Z,100616.41
2023-05-12T00:11:27.098Z,100600.59
2023-05-12T00:13:55.430Z,100625.00
2023-05-12T00:16:22.488Z,100631.94
2023-05-12T00:18:49.544Z,100617.94
2023-05-12T00:21:16.697Z,100624.03
2023-05-12T00:23:43.782Z,100626.63
2023-05-12T00:26:10.886Z,100616.19
2023-05-12T00:28:38.270Z,100597.66
2023-05-12T00:31:05.695Z,100618.75
2023-05-12T00:33:32.916Z,100559.72
2023-05-12T00:36:04.179Z,100599.91
2023-05-12T00:38:31.279Z,100593.75
2023-05-12T00:40:58.356Z,100609.50
2023-05-12T00:43:25.574Z,100600.59
2023-05-12T00:45:53.066Z,100614.66
2023-05-12T00:48:20.277Z,100612.03
2023-05-12T00:50:47.313Z,100610.34
2023-05-12T00:53:14.697Z,100610.34
2023-05-12T00:55:42.425Z,100581.19
2023-05-12T00:58:09.545Z,100597.00
2023-05-12T01:00:36.859Z,100554.72
2023-05-12T01:03:04.964Z,100569.72
2023-05-12T01:06:10.228Z,100604.13
2023-05-12T01:08:38.881Z,100602.94
2023-05-12T01:11:06.676Z,100609.09
2023-05-12T01:13:33.895Z,100587.00
2023-05-12T01:16:03.256Z,100611.63
2023-05-12T01:18:34.997Z,100617.63
2023-05-12T01:21:03.212Z,100624.50
2023-05-12T01:23:36.547Z,100619.28
2023-05-12T01:26:08.025Z,100587.63
2023-05-12T01:28:37.876Z,100616.50
2023-05-12T01:31:07.382Z,100591.00
2023-05-12T01:33:36.774Z,100575.97
2023-05-12T01:36:04.430Z,100604.91
2023-05-12T01:38:31.595Z,100601.41
2023-05-12T01:40:58.708Z,100611.00
2023-05-12T01:43:25.779Z,100610.97
2023-05-12T01:45:52.795Z,100610.94
2023-05-12T01:48:20.031Z,100606.59
2023-05-12T01:50:47.101Z,100603.03
2023-05-12T01:53:19.798Z,100578.28
2023-05-12T01:55:46.827Z,100611.63
2023-05-12T01:58:13.895Z,100616.03
2023-05-12T02:00:41.130Z,100619.31
2023-05-12T02:03:14.377Z,100615.72
2023-05-12T02:05:41.438Z,100604.16
2023-05-12T02:08:08.499Z,100600.59
2023-05-12T02:10:35.967Z,100617.22
2023-05-12T02:13:03.781Z,100615.44
2023-05-12T02:15:33.441Z,100625.84
2023-05-12T02:18:01.085Z,100624.94
2023-05-12T02:20:29.777Z,100603.84
2023-05-12T02:22:57.101Z,100606.53
2023-05-12T02:25:24.232Z,100609.19
2023-05-12T02:27:51.366Z,100609.09
2023-05-12T02:30:18.929Z,100614.53
2023-05-12T02:32:46.595Z,100629.38
2023-05-12T02:35:13.899Z,100627.66
2023-05-12T02:37:40.999Z,100621.63
2023-05-12T02:40:08.974Z,100617.28
2023-05-12T02:42:38.543Z,100623.34
2023-05-12T02:45:06.425Z,100619.06
2023-05-12T02:47:36.492Z,100621.81
2023-05-12T02:50:04.024Z,100615.63
2023-05-12T02:52:32.348Z,100611.28
2023-05-12T02:54:59.450Z,100623.66
2023-05-12T02:57:32.114Z,100620.34
2023-05-12T02:59:59.208Z,100626.59
2023-05-12T03:02:26.453Z,100621.56
2023-05-12T03:04:53.680Z,100627.00
2023-05-12T03:07:21.678Z,100604.38
2023-05-12T03:09:48.782Z,100627.53
2023-05-12T03:12:16.055Z,100622.59
2023-05-12T03:14:43.158Z,100622.84
2023-05-12T03:17:10.305Z,100617.09
2023-05-12T03:19:37.527Z,100600.72
2023-05-12T03:22:07.371Z,100576.31
2023-05-12T03:24:36.752Z,100622.38
2023-05-12T03:27:05.176Z,100624.47
2023-05-12T03:29:32.268Z,100600.13
2023-05-12T03:31:59.262Z,100615.47
2023-05-12T03:34:26.684Z,100610.47
2023-05-12T03:36:57.452Z,100617.66
2023-05-12T03:39:25.256Z,100619.75
2023-05-12T03:41:52.799Z,100615.56
2023-05-12T03:44:19.817Z,100592.97
2023-05-12T03:46:46.953Z,100616.03
2023-05-12T03:49:14.237Z,100611.13
2023-05-12T03:51:41.590Z,100615.69
2023-05-12T03:54:09.092Z,100614.03
2023-05-12T03:56:36.473Z,100619.25
2023-05-12T03:59:04.183Z,100622.00
2023-05-12T04:01:31.277Z,100571.22
2023-05-12T04:03:58.364Z,100599.50
2023-05-12T04:06:25.372Z,100615.38
2023-05-12T04:08:52.373Z,100603.38
2023-05-12T04:11:19.518Z,100604.56
2023-05-12T04:13:46.550Z,100606.66
2023-05-12T04:16:14.655Z,100588.56
2023-05-12T04:18:41.772Z,100585.31
2023-05-12T04:21:08.863Z,100597.75
2023-05-12T04:23:35.931Z,100604.03
2023-05-12T04:26:05.365Z,100588.34
2023-05-12T04:28:32.493Z,100595.50
2023-05-12T04:31:04.638Z,100595.63
2023-05-12T04:33:32.410Z,100567.72
2023-05-12T04:35:59.841Z,100574.78
2023-05-12T04:38:27.552Z,100591.50
2023-05-12T04:40:59.384Z,100591.53
2023-05-12T04:45:59.813Z,100587.22
2023-05-12T04:48:29.217Z,100586.38
2023-05-12T04:51:00.173Z,100588.09
2023-05-12T04:53:28.013Z,100597.72
2023-05-12T04:55:56.765Z,100595.13
2023-05-12T04:58:25.780Z,100581.97
2023-05-12T05:00:53.345Z,100599.53
2023-05-12T05:03:20.677Z,100550.50
2023-05-12T05:05:49.186Z,100602.19
2023-05-12T05:08:16.958Z,100601.31
2023-05-12T05:10:44.091Z,100594.31
2023-05-12T05:13:11.173Z,100597.84
2023-05-12T05:15:38.468Z,100607.50
2023-05-12T05:18:06.144Z,100587.38
2023-05-12T05:20:34.658Z,100608.38
2023-05-12T05:23:01.974Z,100605.88
2023-05-12T05:25:29.062Z,100596.25
2023-05-12T05:27:56.443Z,100598.91
2023-05-12T05:30:23.532Z,100612.94
2023-05-12T05:32:50.680Z,100597.25
2023-05-12T05:35:18.902Z,100606.00
2023-05-12T05:37:48.516Z,100600.78
2023-05-12T05:40:15.712Z,100595.56
2023-05-12T05:42:43.048Z,100592.94
2023-05-12T05:45:11.278Z,100593.81
2023-05-12T05:47:39.403Z,100589.44
2023-05-12T05:50:08.096Z,100588.56
2023-05-12T05:52:37.500Z,100578.09
2023-05-12T05:55:05.054Z,100597.31
2023-05-12T05:57:32.405Z,100596.44
2023-05-12T06:00:00.396Z,100585.97
2023-05-12T06:02:28.321Z,100585.03
2023-05-12T06:04:55.585Z,100596.38
2023-05-12T06:07:22.538Z,100588.44
2023-05-12T06:09:49.675Z,100585.75
2023-05-12T06:12:16.706Z,100590.06
2023-05-12T06:14:43.715Z,100589.16
2023-05-12T06:17:10.709Z,100573.34
2023-05-12T06:19:38.064Z,100571.56
2023-05-12T06:22:05.371Z,100579.38
2023-05-12T06:24:32.362Z,100587.00
2023-05-12T06:26:59.372Z,100587.53
2023-05-12T06:29:26.397Z,100584.56
2023-05-12T06:31:53.432Z,100584.38
2023-05-12T06:34:20.532Z,100578.13
2023-05-12T06:36:47.503Z,100584.19
2023-05-12T06:39:14.601Z,100571.09
2023-05-12T06:41:43.084Z,100582.44
2023-05-12T06:44:20.085Z,100575.41
2023-05-12T06:46:53.218Z,100576.25
2023-05-12T06:49:21.878Z,100587.50
2023-05-12T06:51:48.905Z,100535.91
2023-05-12T06:54:16.000Z,100555.94
2023-05-12T06:56:43.059Z,100574.41
2023-05-12T06:59:10.077Z,100565.53
2023-05-12T07:01:37.097Z,100563.66
2023-05-12T07:04:04.610Z,100568.91
2023-05-12T07:06:32.248Z,100576.69
2023-05-12T07:08:59.341Z,100572.25
2023-05-12T07:11:26.989Z,100573.97
2023-05-12T07:13:54.016Z,100580.97
2023-05-12T07:16:21.395Z,100559.97
2023-05-12T07:18:48.489Z,100570.44
2023-05-12T07:21:15.760Z,100519.78
2023-05-12T07:23:43.002Z,100528.22
2023-05-12T07:26:10.051Z,100575.19
2023-05-12T07:28:37.236Z,100560.34
2023-05-12T07:31:05.867Z,100566.28
2023-05-12T07:33:33.529Z,100560.88
2023-05-12T07:36:01.559Z,100573.09
2023-05-12T07:38:29.220Z,100569.34
2023-05-12T07:40:56.953Z,100568.38
2023-05-12T07:43:23.989Z,100571.91
2023-05-12T07:45:51.495Z,100566.94
2023-05-12T07:48:18.990Z,100561.78
2023-05-12T07:50:46.073Z,100562.88
2023-05-12T07:53:13.172Z,100564.75
2023-05-12T07:55:41.278Z,100557.72
2023-05-12T07:58:08.288Z,100550.72
2023-05-12T08:00:35.317Z,100554.97
2023-05-12T08:03:02.536Z,100567.97
2023-05-12T08:05:29.684Z,100561.66
2023-05-12T08:07:56.666Z,100539.75
2023-05-12T08:10:26.822Z,100550.91
2023-05-12T08:12:53.818Z,100558.84
2023-05-12T08:15:21.140Z,100561.47
2023-05-12T08:17:48.643Z,100554.59
2023-05-12T08:20:15.764Z,100551.09
2023-05-12T08:22:42.809Z,100558.81
2023-05-12T08:25:11.663Z,100552.50
2023-05-12T08:27:39.615Z,100547.88
2023-05-12T08:30:07.302Z,100550.38
2023-05-12T08:32:34.695Z,100545.03
2023-05-12T08:35:01.934Z,100534.53
2023-05-12T08:37:34.516Z,100541.44
2023-05-12T08:40:04.252Z,100537.09
2023-05-12T08:42:41.538Z,100544.59
2023-05-12T08:45:10.758Z,100539.06
2023-05-12T08:47:39.041Z,100538.13
2023-05-12T08:50:06.638Z,100541.72
2023-05-12T08:52:36.596Z,100541.91
2023-05-12T08:55:05.011Z,100533.44
2023-05-12T08:57:33.788Z,100544.13
2023-05-12T09:00:03.021Z,100531.78
2023-05-12T09:02:51.977Z,100533.50
2023-05-12T09:05:21.584Z,100535.53
2023-05-12T09:07:50.476Z,100532.19
2023-05-12T09:10:33.732Z,100525.03
2023-05-12T09:13:16.599Z,100523.84
2023-05-12T09:15:47.432Z,100471.97
2023-05-12T09:18:14.621Z,100515.09
2023-05-12T09:20:41.609Z,100522.16
2023-05-12T09:23:19.891Z,100514.22
2023-05-12T09:25:47.276Z,100522.25
2023-05-12T09:28:14.857Z,100524.25
2023-05-12T09:30:42.759Z,100518.28
2023-05-12T09:33:14.021Z,100505.38
2023-05-12T09:35:46.049Z,100508.13
2023-05-12T09:38:14.763Z,100499.47
2023-05-12T09:40:43.405Z,100508.06
2023-05-12T09:43:13.613Z,100499.50
2023-05-12T09:45:44.201Z,100494.41
2023-05-12T09:48:12.829Z,100482.97
2023-05-12T09:50:53.010Z,100519.34
2023-05-12T09:53:23.036Z,100513.84
2023-05-12T09:55:50.394Z,100505.72
2023-05-12T09:58:19.642Z,100499.28
2023-05-12T10:03:18.698Z,100488.25
2023-05-12T10:05:53.030Z,100493.97
2023-05-12T10:09:09.258Z,100496.44
2023-05-12T10:11:37.057Z,100481.00
2023-05-12T10:14:06.779Z,100498.56
2023-05-12T10:16:34.128Z,100488.69
2023-05-12T10:19:02.892Z,100494.00
2023-05-12T10:21:30.788Z,100493.09
2023-05-12T10:23:59.122Z,100489.50
2023-05-12T10:26:27.496Z,100486.16
2023-05-12T10:28:54.923Z,100490.69
2023-05-12T10:31:23.073Z,100482.88
2023-05-12T10:34:01.348Z,100486.22
2023-05-12T10:36:29.242Z,100483.47
2023-05-12T10:39:04.440Z,100485.06
2023-05-12T10:41:33.152Z,100424.00
2023-05-12T10:44:00.653Z,100468.38
2023-05-12T10:46:28.209Z,100476.28
2023-05-12T10:49:15.790Z,100482.38
2023-05-12T10:51:42.696Z,100488.94
2023-05-12T10:54:11.860Z,100479.69
2023-05-12T10:56:39.709Z,100488.66
2023-05-12T10:59:21.829Z,100497.63
2023-05-12T11:02:01.885Z,100448.97
2023-05-12T11:04:37.602Z,100495.16
2023-05-12T11:07:07.730Z,100487.38
2023-05-12T11:09:55.293Z,100475.13
2023-05-12T11:12:32.702Z,100476.66
2023-05-12T11:15:01.924Z,100464.25
2023-05-12T11:17:33.890Z,100428.09
2023-05-12T11:20:01.580Z,100480.19
2023-05-12T11:22:33.379Z,100472.94
2023-05-12T11:25:09.786Z,100476.13
2023-05-12T11:27:42.443Z,100445.25
2023-05-12T11:30:11.248Z,100465.75
2023-05-12T11:32:38.831Z,100477.44
2023-05-12T11:35:10.618Z,100463.81
2023-05-12T11:37:39.745Z,100467.75
2023-05-12T11:40:20.340Z,100468.09
2023-05-12T11:42:53.053Z,100464.50
2023-05-12T11:45:22.204Z,100468.88
2023-05-12T11:47:49.638Z,100464.53
2023-05-12T11:50:24.142Z,100451.28
2023-05-12T11:52:52.658Z,100454.72
2023-05-12T11:55:24.749Z,100444.19
2023-05-12T11:58:03.226Z,100450.09
2023-05-12T12:00:35.772Z,100454.75
2023-05-12T12:03:14.169Z,100447.19
2023-05-12T12:05:44.011Z,100457.03
2023-05-12T12:08:14.897Z,100450.81
2023-05-12T12:10:45.942Z,100447.53
2023-05-12T12:13:19.749Z,100446.13
2023-05-12T12:15:46.783Z,100443.81
2023-05-12T12:18:13.901Z,100436.22
2023-05-12T12:20:40.939Z,100433.78
2023-05-12T12:23:07.921Z,100435.56
2023-05-12T12:25:34.984Z,100437.16
2023-05-12T12:28:02.736Z,100442.63
2023-05-12T12:30:29.858Z,100436.63
2023-05-12T12:32:57.254Z,100434.94
2023-05-12T12:35:24.686Z,100410.59
2023-05-12T12:37:52.970Z,100432.56
2023-05-12T12:40:20.293Z,100435.31
2023-05-12T12:42:48.360Z,100425.56
2023-05-12T12:45:16.190Z,100427.38
2023-05-12T12:47:44.049Z,100420.34
2023-05-12T12:50:11.471Z,100406.41
2023-05-12T12:52:38.780Z,100417.75
2023-05-12T12:55:07.271Z,100411.94
2023-05-12T12:57:34.927Z,100423.38
2023-05-12T13:00:03.770Z,100413.75
2023-05-12T13:02:37.418Z,100419.97
2023-05-12T13:05:07.187Z,100415.53
2023-05-12T13:07:34.703Z,100416.41
2023-05-12T13:10:02.381Z,100417.28
2023-05-12T13:12:33.244Z,100404.88
2023-05-12T13:15:00.861Z,100407.47
2023-05-12T13:17:28.579Z,100391.75
2023-05-12T13:19:55.908Z,100410.09
2023-05-12T13:22:23.019Z,100405.69
2023-05-12T13:24:50.048Z,100402.13
2023-05-12T13:27:17.114Z,100395.00
2023-05-12T13:29:47.391Z,100392.47
2023-05-12T13:32:16.205Z,100395.25
2023-05-12T13:34:43.330Z,100386.69
2023-05-12T13:37:10.674Z,100391.19
2023-05-12T13:39:37.711Z,100388.75
2023-05-12T13:42:05.072Z,100386.28
2023-05-12T13:44:32.096Z,100389.06
2023-05-12T13:46:59.228Z,100348.00
2023-05-12T13:49:26.328Z,100373.16
2023-05-12T13:51:53.306Z,100374.91
2023-05-12T13:54:20.245Z,100367.91
2023-05-12T13:56:47.363Z,100367.78
2023-05-12T13:59:14.384Z,100372.81
2023-05-12T14:01:41.745Z,100373.59
2023-05-12T14:04:08.752Z,100376.97
2023-05-12T14:06:35.821Z,100377.78
2023-05-12T14:09:05.458Z,100368.84
2023-05-12T14:11:33.492Z,100373.06
2023-05-12T14:14:01.293Z,100365.22
2023-05-12T14:16:28.518Z,100368.66
2023-05-12T14:18:55.967Z,100362.63
2023-05-12T14:21:23.066Z,100358.31
2023-05-12T14:23:51.324Z,100372.19
2023-05-12T14:26:19.486Z,100372.25
2023-05-12T14:28:46.665Z,100367.09
2023-05-12T14:31:13.848Z,100358.59
2023-05-12T14:33:41.137Z,100366.44
2023-05-12T14:36:09.035Z,100358.59
2023-05-12T14:38:36.638Z,100368.13
2023-05-12T14:41:04.127Z,100361.97
2023-05-12T14:43:31.180Z,100351.72
2023-05-12T14:45:58.284Z,100355.03
2023-05-12T14:48:28.026Z,100369.88
2023-05-12T14:50:56.766Z,100365.47
2023-05-12T14:53:24.392Z,100369.88
2023-05-12T14:55:51.719Z,100363.78
2023-05-12T14:58:19.346Z,100362.13
2023-05-12T15:00:47.592Z,100365.81
2023-05-12T15:03:14.849Z,100367.69
2023-05-12T15:06:01.539Z,100352.06
2023-05-12T15:08:29.490Z,100364.22
2023-05-12T15:10:56.568Z,100364.28
2023-05-12T15:13:23.703Z,100358.19
2023-05-12T15:15:52.971Z,100357.25
2023-05-12T15:18:22.396Z,100351.19
2023-05-12T15:20:49.501Z,100351.22
2023-05-12T15:23:16.495Z,100348.63
2023-05-12T15:25:43.527Z,100358.34
2023-05-12T15:28:10.610Z,100360.13
2023-05-12T15:30:37.710Z,100333.25
2023-05-12T15:33:05.103Z,100351.44
2023-05-12T15:35:32.832Z,100358.63
2023-05-12T15:38:00.369Z,100351.66
2023-05-12T15:40:27.543Z,100309.03
2023-05-12T15:42:54.714Z,100350.78
2023-05-12T15:45:22.017Z,100348.25
2023-05-12T15:47:49.246Z,100336.88
2023-05-12T15:50:19.928Z,100351.78
2023-05-12T15:52:47.567Z,100348.28
2023-05-12T15:55:15.231Z,100343.91
2023-05-12T15:57:42.281Z,100346.66
2023-05-12T16:00:09.737Z,100351.94
2023-05-12T16:02:45.587Z,100336.22
2023-05-12T16:05:12.688Z,100352.81
2023-05-12T16:07:39.933Z,100347.63
2023-05-12T16:10:07.405Z,100340.88
2023-05-12T16:12:34.609Z,100356.56
2023-05-12T16:15:02.248Z,100341.00
2023-05-12T16:17:34.289Z,100357.56
2023-05-12T16:20:02.141Z,100357.59
2023-05-12T16:22:31.990Z,100340.19
2023-05-12T16:24:59.238Z,100344.66
2023-05-12T16:27:26.977Z,100356.03
2023-05-12T16:29:54.068Z,100362.19
2023-05-12T16:32:21.161Z,100363.97
2023-05-12T16:34:48.370Z,100321.41
2023-05-12T16:37:15.386Z,100359.72
2023-05-12T16:39:42.786Z,100354.56
2023-05-12T16:42:09.929Z,100362.47
2023-05-12T16:44:36.981Z,100365.25
2023-05-12T16:47:04.402Z,100358.38
2023-05-12T16:49:31.538Z,100293.16
2023-05-12T16:51:58.524Z,100373.41
2023-05-12T16:54:25.637Z,100370.91
2023-05-12T16:59:20.205Z,100363.25
2023-05-12T17:01:47.313Z,100366.88
2023-05-12T17:04:15.566Z,100374.00
2023-05-12T17:06:43.370Z,100368.94
2023-05-12T17:09:10.371Z,100369.06
2023-05-12T17:11:37.370Z,100351.81
2023-05-12T17:14:05.000Z,100371.94
2023-05-12T17:16:32.200Z,100389.50
2023-05-12T17:21:29.304Z,100385.38
2023-05-12T17:23:57.333Z,100375.00
2023-05-12T17:26:27.703Z,100389.03
2023-05-12T17:28:55.633Z,100392.72
2023-05-12T17:31:22.946Z,100392.72
2023-05-12T17:33:50.075Z,100384.03
2023-05-12T17:36:18.738Z,100404.31
2023-05-12T17:38:46.384Z,100397.44
2023-05-12T17:41:13.744Z,100387.94
2023-05-12T17:43:41.522Z,100395.88
2023-05-12T17:46:09.264Z,100395.16
2023-05-12T17:48:38.498Z,100413.59
2023-05-12T17:51:06.465Z,100414.56
2023-05-12T17:53:34.200Z,100419.03
2023-05-12T17:56:01.660Z,100402.50
2023-05-12T17:58:28.931Z,100393.81
2023-05-12T18:00:56.312Z,100418.34
2023-05-12T18:03:23.975Z,100419.31
2023-05-12T18:05:53.382Z,100421.97
2023-05-12T18:08:21.819Z,100423.78
2023-05-12T18:10:49.105Z,100425.56
2023-05-12T18:13:16.268Z,100422.16
2023-05-12T18:15:43.569Z,100425.75
2023-05-12T18:18:11.052Z,100426.69
2023-05-12T18:20:38.582Z,100370.00
2023-05-12T18:23:05.935Z,100420.72
2023-05-12T18:25:33.266Z,100421.69
2023-05-12T18:28:00.372Z,100421.72
2023-05-12T18:30:27.562Z,100403.44
2023-05-12T18:32:54.791Z,100421.81
2023-05-12T18:35:22.223Z,100419.19
2023-05-12T18:37:49.647Z,100407.91
2023-05-12T18:40:17.031Z,100414.03
2023-05-12T18:42:44.225Z,100420.19
2023-05-12T18:45:12.182Z,100430.69
2023-05-12T18:47:39.806Z,100422.00
2023-05-12T18:50:07.991Z,100430.78
2023-05-12T18:52:35.703Z,100429.94
2023-05-12T18:55:03.142Z,100419.50
2023-05-12T18:57:33.141Z,100425.66
2023-05-12T19:00:00.642Z,100428.31
2023-05-12T19:02:28.033Z,100431.84
2023-05-12T19:04:55.250Z,100433.59
2023-05-12T19:07:22.556Z,100419.66
2023-05-12T19:09:49.685Z,100427.53
2023-05-12T19:12:16.826Z,100432.78
2023-05-12T19:14:44.652Z,100427.56
2023-05-12T19:17:11.747Z,100412.75
2023-05-12T19:19:38.848Z,100425.88
2023-05-12T19:22:05.952Z,100430.25
2023-05-12T19:24:34.553Z,100425.03
2023-05-12T19:27:01.836Z,100418.06
2023-05-12T19:29:28.998Z,100426.81
2023-05-12T19:31:56.266Z,100398.84
2023-05-12T19:34:24.005Z,100412.81
2023-05-12T19:36:53.022Z,100424.19
2023-05-12T19:39:20.143Z,100429.44
2023-05-12T19:41:47.196Z,100418.06
2023-05-12T19:44:14.231Z,100424.16
2023-05-12T19:46:41.467Z,100418.03
2023-05-12T19:49:08.667Z,100428.53
2023-05-12T19:51:35.742Z,100423.28
2023-05-12T19:54:04.920Z,100423.28
2023-05-12T19:56:32.988Z,100411.06
2023-05-12T19:59:00.209Z,100421.53
2023-05-12T20:01:27.592Z,100410.16
2023-05-12T20:03:54.763Z,100411.88
2023-05-12T20:06:22.569Z,100420.63
2023-05-12T20:08:49.592Z,100422.34
2023-05-12T20:11:16.596Z,100424.09
2023-05-12T20:13:43.591Z,100424.06
2023-05-12T20:16:10.818Z,100430.19
2023-05-12T20:18:37.959Z,100387.34
2023-05-12T20:21:05.058Z,100425.78
2023-05-12T20:23:32.262Z,100410.03
2023-05-12T20:25:59.934Z,100425.75
2023-05-12T20:28:28.342Z,100426.63
2023-05-12T20:30:55.517Z,100427.47
2023-05-12T20:33:22.675Z,100413.44
2023-05-12T20:35:49.725Z,100432.66
2023-05-12T20:38:16.881Z,100418.66
2023-05-12T20:40:43.920Z,100418.66
2023-05-12T20:43:13.613Z,100421.22
2023-05-12T20:45:41.470Z,100410.66
2023-05-12T20:48:09.346Z,100426.34
2023-05-12T20:50:36.466Z,100422.00
2023-05-12T20:53:04.674Z,100426.31
2023-05-12T20:55:35.461Z,100429.81
2023-05-12T20:58:02.536Z,100427.19
2023-05-12T21:00:29.593Z,100429.75
2023-05-12T21:02:58.182Z,100374.63
2023-05-12T21:05:25.762Z,100417.44
2023-05-12T21:07:52.919Z,100430.53
2023-05-12T21:10:20.556Z,100427.94
2023-05-12T21:12:48.678Z,100412.19
2023-05-12T21:15:15.905Z,100428.78
2023-05-12T21:17:42.968Z,100431.41
2023-05-12T21:20:11.966Z,100412.97
2023-05-12T21:22:40.767Z,100425.22
2023-05-12T21:25:08.520Z,100431.38
2023-05-12T21:27:40.560Z,100427.84
2023-05-12T21:30:09.524Z,100419.97
2023-05-12T21:32:36.846Z,100420.81
2023-05-12T21:35:04.996Z,100435.66
2023-05-12T21:37:33.131Z,100419.88
2023-05-12T21:40:00.218Z,100432.97
2023-05-12T21:42:27.409Z,100432.94
2023-05-12T21:44:54.497Z,100418.84
2023-05-12T21:47:21.533Z,100431.91
2023-05-12T21:49:53.651Z,100424.06
2023-05-12T21:52:21.105Z,100418.75
2023-05-12T21:54:48.151Z,100427.53
2023-05-12T21:57:15.301Z,100410.84
2023-05-12T21:59:42.318Z,100412.59
2023-05-12T22:02:09.337Z,100426.59
2023-05-12T22:04:36.515Z,100412.53
2023-05-12T22:07:03.600Z,100428.25
2023-05-12T22:09:31.272Z,100417.63
2023-05-12T22:11:58.529Z,100442.91
2023-05-12T22:14:25.559Z,100408.78
2023-05-12T22:16:52.608Z,100428.88
2023-05-12T22:19:19.740Z,100373.66
2023-05-12T22:21:47.029Z,100413.84
2023-05-12T22:24:14.357Z,100414.72
2023-05-12T22:26:41.496Z,100417.25
2023-05-12T22:29:08.469Z,100432.09
2023-05-12T22:31:35.957Z,100433.00
2023-05-12T22:34:02.946Z,100426.03
2023-05-12T22:36:30.380Z,100414.63
2023-05-12T22:38:57.384Z,100411.16
2023-05-12T22:41:24.462Z,100431.28
2023-05-12T22:43:51.647Z,100439.06
2023-05-12T22:46:18.718Z,100434.72
2023-05-12T22:48:45.777Z,100430.31
2023-05-12T22:51:12.878Z,100439.88
2023-05-12T22:53:43.006Z,100437.25
2023-05-12T22:56:10.017Z,100429.31
2023-05-12T22:58:37.308Z,100417.09
2023-05-12T23:01:04.558Z,100424.13
2023-05-12T23:03:32.960Z,100437.25
2023-05-12T23:05:59.989Z,100423.25
2023-05-12T23:08:27.015Z,100442.53
2023-05-12T23:10:54.231Z,100428.47
2023-05-12T23:13:21.249Z,100441.59
2023-05-12T23:15:48.315Z,100441.53
2023-05-12T23:18:15.651Z,100440.66
2023-05-12T23:20:43.058Z,100424.84
2023-05-12T23:23:10.110Z,100437.09
2023-05-12T23:25:38.840Z,100436.13
2023-05-12T23:28:06.664Z,100430.81
2023-05-12T23:30:33.771Z,100437.78
2023-05-12T23:33:01.041Z,100424.53
2023-05-12T23:35:28.086Z,100437.59
2023-05-12T23:37:55.108Z,100427.81
2023-05-12T23:40:22.389Z,100443.59
2023-05-12T23:42:49.762Z,100412.94
2023-05-12T23:45:16.838Z,100446.28
2023-05-12T23:47:43.841Z,100440.22
2023-05-12T23:50:11.492Z,100424.50
2023-05-12T23:52:38.508Z,100442.06
2023-05-12T23:55:06.150Z,100436.78
2023-05-12T23:57:33.150Z,100391.97
